Time;durP1;ratioP1;P1;durP2;ratioP2;P2;SDS_P1;SDS_P2;PMS_P1;PMS_P2;Temp;Humidity;BMP_temperature;BMP_pressure;BME280_temperature;BME280_humidity;BME280_pressure;Samples;Min_cycle;Max_cycle;Signal;HPM_P1;HPM_P2
2022/05/22 00:03:14;;;;;;;8.02;4.53;;;;;;;20.50;54.73;96058.59;10420310;27;96795;-68
2022/05/22 00:08:18;;;;;;;5.95;4.15;;;;;;;20.40;55.91;96063.56;10413285;27;100808;-69
2022/05/22 00:13:21;;;;;;;9.02;4.57;;;;;;;20.36;56.13;96061.31;10418719;28;96971;-69
2022/05/22 00:18:24;;;;;;;9.95;4.38;;;;;;;20.13;56.58;96064.53;10416575;27;97171;-69
2022/05/22 00:23:31;;;;;;;6.05;4.10;;;;;;;19.93;56.69;96059.31;10417978;27;97120;-69
2022/05/22 00:28:34;;;;;;;8.40;4.03;;;;;;;19.76;57.89;96060.78;10416987;27;97419;-69
2022/05/22 00:33:37;;;;;;;7.93;4.18;;;;;;;19.63;57.43;96046.56;10415469;27;97622;-69
2022/05/22 00:38:42;;;;;;;6.88;4.30;;;;;;;19.46;58.62;96042.72;10415922;27;96999;-69
2022/05/22 00:43:47;;;;;;;7.85;4.78;;;;;;;19.35;59.32;96038.06;10416054;27;99492;-69
2022/05/22 00:48:54;;;;;;;6.15;4.07;;;;;;;19.19;59.51;96036.69;10416588;27;98010;-69
2022/05/22 00:54:01;;;;;;;8.07;4.47;;;;;;;19.03;60.54;96032.63;10414216;27;97259;-69
2022/05/22 00:59:10;;;;;;;10.23;4.50;;;;;;;18.92;61.08;96028.78;10420338;27;97335;-69
2022/05/22 01:04:20;;;;;;;7.68;4.35;;;;;;;18.95;60.15;96032.84;10418191;27;96851;-69
2022/05/22 01:09:24;;;;;;;6.60;4.18;;;;;;;18.83;60.59;96020.22;10414570;27;97592;-69
2022/05/22 01:14:28;;;;;;;10.48;4.97;;;;;;;18.68;60.48;96017.75;10414867;27;96872;-69
2022/05/22 01:19:31;;;;;;;9.00;4.63;;;;;;;18.39;61.81;96024.25;10417134;27;98420;-69
2022/05/22 01:24:36;;;;;;;8.27;4.57;;;;;;;18.19;62.49;96026.09;10412296;27;97108;-69
2022/05/22 01:29:39;;;;;;;8.80;4.45;;;;;;;18.22;62.36;96028.31;10412513;27;102510;-69
2022/05/22 01:34:42;;;;;;;8.93;4.78;;;;;;;18.26;62.48;96018.97;10412321;27;101200;-69
2022/05/22 01:39:46;;;;;;;9.35;4.40;;;;;;;18.34;62.26;96018.75;10414331;27;96857;-69
2022/05/22 01:44:49;;;;;;;7.43;5.03;;;;;;;18.16;62.65;96026.47;10414849;27;97344;-69
2022/05/22 01:49:51;;;;;;;12.90;5.70;;;;;;;17.91;63.88;96029.69;10417265;27;96978;-69
2022/05/22 01:54:56;;;;;;;7.38;5.10;;;;;;;17.82;63.42;96033.47;10414295;27;100870;-69
2022/05/22 01:59:59;;;;;;;6.85;4.40;;;;;;;17.82;63.61;96038.75;10416114;27;97065;-69
2022/05/22 02:05:02;;;;;;;7.45;5.10;;;;;;;17.66;64.14;96030.16;10414218;27;97131;-69
2022/05/22 02:10:08;;;;;;;8.48;5.10;;;;;;;17.60;64.87;96030.16;10417864;27;96916;-69
2022/05/22 02:15:11;;;;;;;10.48;4.70;;;;;;;17.51;64.51;96026.88;10414381;27;96757;-69
2022/05/22 02:20:14;;;;;;;7.97;4.50;;;;;;;17.51;64.68;96025.03;10416933;27;97554;-69
2022/05/22 02:25:20;;;;;;;8.18;4.38;;;;;;;17.58;64.88;96014.50;10404537;27;97293;-69
2022/05/22 02:30:26;;;;;;;6.50;4.88;;;;;;;17.55;65.07;96020.16;10416017;27;97708;-69
2022/05/22 02:35:30;;;;;;;9.60;5.00;;;;;;;17.40;65.57;96019.47;10415317;27;96893;-69
2022/05/22 02:40:35;;;;;;;8.23;5.18;;;;;;;17.21;65.78;96013.88;10414014;27;98637;-69
2022/05/22 02:45:41;;;;;;;9.10;4.78;;;;;;;17.18;65.95;96012.47;10413180;27;97560;-68
2022/05/22 02:50:46;;;;;;;7.55;4.40;;;;;;;17.15;66.32;96012.84;10415031;27;96814;-69
2022/05/22 02:55:50;;;;;;;8.90;4.35;;;;;;;17.18;65.81;96007.19;10413684;27;97098;-69
2022/05/22 03:00:53;;;;;;;8.75;5.57;;;;;;;17.26;65.48;96003.56;10409119;27;98972;-69
2022/05/22 03:11:17;;;;;;;5.97;4.40;;;;;;;17.00;66.61;95989.22;10404896;27;97086;-69
2022/05/22 03:16:20;;;;;;;8.73;4.82;;;;;;;17.05;66.46;95991.28;10415977;27;97081;-69
2022/05/22 03:21:23;;;;;;;6.82;4.72;;;;;;;17.07;65.91;95983.16;10411313;27;97752;-69
2022/05/22 03:26:27;;;;;;;5.22;4.38;;;;;;;17.06;66.67;95973.59;10408267;27;97384;-69
2022/05/22 03:31:30;;;;;;;8.00;5.10;;;;;;;17.00;66.55;95972.56;10415814;27;97671;-69
2022/05/22 03:36:36;;;;;;;6.85;4.60;;;;;;;16.89;66.82;95971.28;10417360;27;98860;-69
2022/05/22 03:41:40;;;;;;;7.45;4.63;;;;;;;16.81;66.82;95961.72;10416814;27;97871;-68
2022/05/22 03:46:44;;;;;;;7.70;4.90;;;;;;;16.74;67.54;95960.00;10417882;27;96932;-69
2022/05/22 03:51:47;;;;;;;6.27;4.80;;;;;;;16.54;68.36;95960.69;10419892;27;97812;-69
2022/05/22 03:56:51;;;;;;;8.48;5.32;;;;;;;16.37;69.13;95956.69;10417153;27;96835;-69
2022/05/22 04:01:54;;;;;;;8.10;5.53;;;;;;;16.21;69.49;95958.59;10410960;27;97662;-69
2022/05/22 04:06:57;;;;;;;7.53;5.13;;;;;;;16.19;70.58;95957.13;10416410;27;98183;-69
2022/05/22 04:12:01;;;;;;;5.55;4.90;;;;;;;16.21;70.75;95969.16;10418067;27;101155;-69
2022/05/22 04:17:05;;;;;;;7.10;4.78;;;;;;;16.26;69.80;95965.94;10419000;27;96821;-69
2022/05/22 04:22:08;;;;;;;7.27;4.83;;;;;;;16.36;69.67;95968.25;10420759;27;96939;-69
2022/05/22 04:27:12;;;;;;;8.88;4.88;;;;;;;16.46;69.36;95970.56;10418065;27;98668;-69
2022/05/22 04:32:15;;;;;;;8.38;4.80;;;;;;;16.58;68.58;95964.56;10417942;27;97133;-68
2022/05/22 04:37:18;;;;;;;9.57;5.30;;;;;;;16.68;68.25;95968.69;10418917;27;98530;-68
2022/05/22 04:42:22;;;;;;;6.85;4.40;;;;;;;16.80;67.86;95962.72;10416749;27;97100;-69
2022/05/22 04:47:25;;;;;;;7.15;4.47;;;;;;;16.89;67.55;95970.50;10419772;27;98845;-69
2022/05/22 04:52:27;;;;;;;9.88;4.90;;;;;;;16.91;67.92;95968.47;10418178;27;96747;-69
2022/05/22 04:57:32;;;;;;;10.05;5.10;;;;;;;17.05;67.35;95966.72;10409931;27;98665;-69
2022/05/22 05:02:35;;;;;;;;;;;;;;;17.02;67.60;95964.47;10410584;27;98669;-69
2022/05/22 05:07:38;;;;;;;7.95;5.07;;;;;;;16.86;68.50;95963.75;10413123;27;98786;-69
2022/05/22 05:12:44;;;;;;;6.87;4.53;;;;;;;16.90;68.24;95966.81;10415637;27;98941;-69
2022/05/22 05:17:48;;;;;;;8.48;5.30;;;;;;;17.13;67.99;95966.56;10418905;27;96772;-69
2022/05/22 05:22:51;;;;;;;9.70;5.07;;;;;;;17.26;67.32;95950.75;10415327;27;96755;-69
2022/05/22 05:27:55;;;;;;;7.47;5.45;;;;;;;17.36;67.63;95969.69;10417709;28;97721;-69
2022/05/22 05:32:58;;;;;;;7.47;4.80;;;;;;;17.50;67.67;95972.41;10416008;27;97520;-69
2022/05/22 05:38:01;;;;;;;9.70;5.13;;;;;;;17.66;67.46;95977.31;10418872;27;97289;-69
2022/05/22 05:43:06;;;;;;;8.35;4.55;;;;;;;17.94;66.77;95968.47;10408804;27;96908;-69
2022/05/22 05:48:09;;;;;;;6.53;4.97;;;;;;;18.15;66.85;95958.75;10415616;27;97606;-69
2022/05/22 05:53:14;;;;;;;5.60;4.57;;;;;;;18.28;66.34;95969.34;10414047;27;100040;-69
2022/05/22 05:58:18;;;;;;;7.10;4.95;;;;;;;18.61;65.20;95961.41;10416191;27;100789;-69
2022/05/22 06:03:40;;;;;;;8.68;4.78;;;;;;;18.88;64.74;95980.75;10418206;27;96912;-68
2022/05/22 06:08:44;;;;;;;5.13;4.43;;;;;;;19.05;64.54;95982.94;10416227;27;97596;-69
2022/05/22 06:13:48;;;;;;;6.60;5.00;;;;;;;19.16;65.19;95987.59;10415555;27;96885;-69
2022/05/22 06:18:51;;;;;;;;;;;;;;;19.30;64.60;95976.97;10417171;27;98654;-69
2022/05/22 06:23:54;;;;;;;7.85;5.13;;;;;;;19.44;64.66;95981.22;10411031;27;97073;-69
2022/05/22 06:28:58;;;;;;;9.70;5.22;;;;;;;19.56;65.28;95982.19;10413847;27;97329;-69
2022/05/22 06:34:01;;;;;;;6.28;4.85;;;;;;;19.77;64.26;95972.28;10416361;27;97888;-69
2022/05/22 06:44:25;;;;;;;6.35;4.90;;;;;;;20.15;62.62;95953.72;10411712;27;98717;-69
2022/05/22 06:49:28;;;;;;;5.93;4.90;;;;;;;20.34;62.05;95959.13;10414170;27;97711;-69
2022/05/22 06:54:31;;;;;;;7.32;4.50;;;;;;;20.55;61.31;95953.41;10412148;27;98123;-69
2022/05/22 06:59:36;;;;;;;6.75;5.13;;;;;;;20.68;60.98;95957.78;10416256;27;97713;-69
2022/05/22 07:04:40;;;;;;;6.43;4.63;;;;;;;20.88;59.25;95956.84;10406548;27;98613;-69
2022/05/22 07:09:43;;;;;;;5.65;4.30;;;;;;;21.05;59.60;95968.50;10407162;27;96929;-69
2022/05/22 07:14:48;;;;;;;6.28;4.80;;;;;;;21.08;59.30;95957.41;10414551;27;97491;-69
2022/05/22 07:19:52;;;;;;;6.35;4.00;;;;;;;21.37;58.82;95957.72;10420379;27;98987;-68
2022/05/22 07:24:56;;;;;;;6.60;4.50;;;;;;;21.77;58.15;95962.56;10415693;27;97652;-69
2022/05/22 07:30:00;;;;;;;6.32;4.32;;;;;;;22.09;57.13;95951.69;10416526;27;98152;-68
2022/05/22 07:35:02;;;;;;;;;;;;;;;22.29;57.11;95929.31;10411884;27;98669;-68
2022/05/22 07:40:06;;;;;;;6.10;4.88;;;;;;;22.40;56.81;95957.75;10414579;27;98756;-69
2022/05/22 07:45:15;;;;;;;6.57;4.70;;;;;;;22.40;56.26;95950.63;10416636;27;98476;-69
2022/05/22 07:50:18;;;;;;;5.72;4.38;;;;;;;22.59;55.63;95946.00;10421405;27;96918;-67
2022/05/22 07:55:21;;;;;;;6.85;4.93;;;;;;;22.78;55.42;95938.72;10418895;27;100606;-67
2022/05/22 08:00:26;;;;;;;7.80;5.10;;;;;;;22.93;55.53;95935.59;10415992;28;96854;-69
2022/05/22 08:05:29;;;;;;;5.95;4.50;;;;;;;23.04;55.51;95925.97;10414561;27;96792;-69
2022/05/22 08:10:33;;;;;;;6.68;4.82;;;;;;;23.21;55.17;95915.38;10416529;28;96802;-69
2022/05/22 08:15:38;;;;;;;7.13;5.30;;;;;;;23.43;54.82;95914.78;10418831;27;98120;-69
2022/05/22 08:20:44;;;;;;;6.65;4.65;;;;;;;23.51;54.06;95920.53;10411274;27;100093;-70
2022/05/22 08:25:48;;;;;;;8.57;4.55;;;;;;;23.79;53.65;95916.25;10410464;27;98572;-69
2022/05/22 08:30:53;;;;;;;6.70;4.88;;;;;;;24.03;52.71;95911.59;10414240;27;97747;-69
2022/05/22 08:35:55;;;;;;;5.85;5.03;;;;;;;24.06;52.62;95913.03;10416371;27;97114;-69
2022/05/22 08:41:09;;;;;;;19.08;16.65;;;;;;;24.13;52.61;95911.81;10417102;27;96959;-67
2022/05/22 08:46:21;;;;;;;8.38;5.50;;;;;;;24.32;52.25;95908.91;10418482;27;96697;-70
2022/05/22 08:51:32;;;;;;;10.30;8.05;;;;;;;24.54;51.36;95897.47;10418882;27;97278;-68
2022/05/22 09:02:10;;;;;;;8.25;5.32;;;;;;;24.83;50.77;95893.66;10412486;28;97082;-71
2022/05/22 09:07:20;;;;;;;7.80;4.55;;;;;;;25.06;50.05;95894.47;10415634;27;96749;-70
2022/05/22 09:12:45;;;;;;;7.03;5.10;;;;;;;25.17;49.52;95890.09;10415429;27;97058;-70
2022/05/22 09:17:59;;;;;;;7.05;4.90;;;;;;;25.44;49.38;95890.13;10409211;27;98284;-70
2022/05/22 09:23:15;;;;;;;7.03;5.03;;;;;;;25.70;49.05;95887.75;10418785;27;96982;-69
2022/05/22 09:28:26;;;;;;;6.00;4.55;;;;;;;25.94;48.41;95889.06;10399660;27;98787;-69
2022/05/22 09:33:46;;;;;;;4.65;4.13;;;;;;;26.19;48.33;95876.97;10411598;27;97902;-69
2022/05/22 09:39:03;;;;;;;4.97;4.00;;;;;;;26.25;48.15;95853.72;10428141;27;96754;-69
2022/05/22 09:44:37;;;;;;;5.63;4.45;;;;;;;26.10;47.99;95862.44;10412465;28;96790;-69
2022/05/22 09:50:06;;;;;;;5.63;4.47;;;;;;;25.97;47.83;95856.44;10400867;28;96942;-69
2022/05/22 09:55:23;;;;;;;5.53;4.55;;;;;;;26.08;48.03;95840.47;10416945;27;96733;-69
2022/05/22 10:00:33;;;;;;;6.05;4.45;;;;;;;26.13;48.09;95841.31;10416604;27;96776;-69
2022/05/22 10:05:50;;;;;;;7.10;4.38;;;;;;;26.42;47.10;95837.53;10414791;27;96908;-69
2022/05/22 10:11:04;;;;;;;6.75;4.10;;;;;;;26.40;47.52;95831.63;10404938;28;97989;-69
2022/05/22 10:16:18;;;;;;;7.15;4.28;;;;;;;26.58;46.58;95831.19;10423646;27;96809;-69
2022/05/22 10:21:26;;;;;;;7.25;3.88;;;;;;;26.68;46.22;95833.13;10421843;27;97002;-69
2022/05/22 10:26:43;;;;;;;6.72;4.45;;;;;;;26.84;46.25;95829.44;10414852;28;96747;-69
2022/05/22 10:31:53;;;;;;;6.03;4.18;;;;;;;26.97;45.81;95812.13;10405615;28;96842;-68
2022/05/22 10:37:06;;;;;;;5.85;4.20;;;;;;;26.98;45.94;95813.72;10412372;27;96896;-69
2022/05/22 10:47:36;;;;;;;4.80;3.83;;;;;;;26.94;46.06;95791.22;10399722;28;97102;-69
2022/05/22 10:52:41;;;;;;;6.97;4.37;;;;;;;26.61;46.90;95779.78;10419445;27;96900;-69
2022/05/22 10:57:55;;;;;;;8.80;5.07;;;;;;;26.75;47.12;95777.44;10420440;27;97046;-69
2022/05/22 11:02:57;;;;;;;;;;;;;;;26.99;46.61;95772.47;10425785;27;97372;-69
2022/05/22 11:08:02;;;;;;;4.95;3.92;;;;;;;27.10;45.89;95766.06;10417444;27;97171;-69
2022/05/22 11:13:08;;;;;;;5.32;4.82;;;;;;;27.32;45.53;95757.00;10424092;28;96921;-69
2022/05/22 11:18:19;;;;;;;6.68;3.90;;;;;;;27.23;45.46;95755.88;10427312;27;96875;-69
2022/05/22 11:24:02;;;;;;;6.45;4.32;;;;;;;27.36;45.69;95758.06;10408490;27;96983;-69
2022/05/22 11:29:19;;;;;;;5.60;4.28;;;;;;;27.10;46.33;95741.91;10410981;28;96952;-69
2022/05/22 11:34:53;;;;;;;8.20;4.40;;;;;;;27.22;46.47;95733.63;10409388;27;96961;-69
2022/05/22 11:40:09;;;;;;;5.35;3.90;;;;;;;27.75;45.58;95725.41;10417277;27;97093;-69
2022/05/22 11:45:32;;;;;;;6.55;3.72;;;;;;;28.19;44.85;95727.47;10397091;28;96845;-70
2022/05/22 11:50:39;;;;;;;5.07;3.92;;;;;;;28.43;44.30;95718.84;10416047;28;96846;-69
2022/05/22 11:56:05;;;;;;;6.18;4.43;;;;;;;28.60;44.16;95718.47;10419370;28;96946;-69
2022/05/22 12:01:16;;;;;;;5.15;3.78;;;;;;;28.61;43.73;95699.41;10412146;28;98584;-67
2022/05/22 12:06:37;;;;;;;5.57;4.05;;;;;;;28.53;44.20;95691.09;10421623;28;96925;-70
2022/05/22 12:11:56;;;;;;;4.68;3.92;;;;;;;28.54;44.20;95687.34;10415901;28;101529;-69
2022/05/22 12:17:06;;;;;;;4.93;4.32;;;;;;;28.58;44.18;95667.69;10411145;27;96939;-70
2022/05/22 12:22:18;;;;;;;5.32;3.92;;;;;;;28.54;44.25;95661.28;10417475;27;98978;-70
2022/05/22 12:27:25;;;;;;;4.95;4.30;;;;;;;28.48;44.08;95661.56;10419298;27;97192;-69
2022/05/22 12:32:30;;;;;;;7.22;4.43;;;;;;;28.30;43.84;95660.31;10423029;27;97594;-70
2022/05/22 12:37:38;;;;;;;5.65;4.03;;;;;;;28.31;43.84;95657.38;10420240;27;96953;-70
2022/05/22 12:42:50;;;;;;;6.00;3.80;;;;;;;28.44;43.70;95650.59;10420232;27;97170;-70
2022/05/22 12:47:54;;;;;;;5.40;3.83;;;;;;;28.47;44.17;95646.56;10416379;27;96784;-70
2022/05/22 12:52:57;;;;;;;6.10;3.70;;;;;;;28.46;43.87;95636.88;10410644;27;97520;-70
2022/05/22 12:58:04;;;;;;;5.90;3.50;;;;;;;28.58;43.58;95622.03;10417445;27;97147;-70
2022/05/22 13:03:16;;;;;;;5.68;3.88;;;;;;;28.49;43.87;95604.88;10414765;27;96761;-69
2022/05/22 13:21:37;;;;;;;4.45;3.92;;;;;;;28.61;43.69;95593.81;10418009;27;101100;-70
2022/05/22 13:26:40;;;;;;;13.90;9.57;;;;;;;28.52;43.99;95587.44;10411460;27;104504;-69
2022/05/22 13:31:46;;;;;;;6.07;4.07;;;;;;;28.55;44.12;95579.59;10410862;27;97395;-70
2022/05/22 13:36:57;;;;;;;5.13;3.50;;;;;;;28.91;43.25;95565.94;10417576;27;96744;-70
2022/05/22 13:42:38;;;;;;;4.93;4.18;;;;;;;28.95;43.40;95553.56;10408357;28;97009;-71
2022/05/22 13:48:03;;;;;;;6.53;4.63;;;;;;;28.90;44.58;95548.19;10234595;28;103126;-70
2022/05/22 13:53:33;;;;;;;6.90;4.03;;;;;;;29.23;43.31;95553.84;10242351;28;99002;-69
2022/05/22 13:58:39;;;;;;;6.05;4.35;;;;;;;29.42;43.57;95545.03;10237671;28;98258;-69
2022/05/22 14:03:50;;;;;;;6.05;3.65;;;;;;;30.05;42.46;95531.44;10245869;28;98355;-70
2022/05/22 14:08:57;;;;;;;4.22;3.85;;;;;;;30.85;41.65;95527.09;10244035;28;96771;-69
2022/05/22 14:14:02;;;;;;;5.88;3.88;;;;;;;31.79;40.27;95535.19;10243511;28;97589;-70
2022/05/22 14:19:08;;;;;;;5.13;3.90;;;;;;;31.69;40.26;95538.06;10248778;28;97023;-70
2022/05/22 14:29:44;;;;;;;6.20;3.70;;;;;;;30.72;41.67;95537.81;10415492;27;96988;-69
2022/05/22 14:34:47;;;;;;;;;;;;;;;30.48;41.97;95504.47;10408554;28;97626;-69
2022/05/22 14:39:54;;;;;;;5.50;4.03;;;;;;;30.21;42.24;95491.66;10423432;27;96910;-69
2022/05/22 14:44:57;;;;;;;4.85;3.50;;;;;;;30.22;42.35;95466.31;10422671;27;97157;-69
2022/05/22 14:50:00;;;;;;;4.90;3.63;;;;;;;30.60;42.24;95449.28;10428822;27;97049;-69
2022/05/22 14:55:10;;;;;;;3.72;3.35;;;;;;;31.39;41.18;95492.47;10419554;27;96950;-69
2022/05/22 15:00:37;;;;;;;5.43;3.85;;;;;;;31.77;40.38;95499.56;10419103;27;96662;-69
2022/05/22 15:05:44;;;;;;;5.78;3.70;;;;;;;31.69;40.23;95484.06;10419778;27;96915;-69
2022/05/22 15:10:49;;;;;;;4.13;3.72;;;;;;;32.06;39.39;95493.09;10415547;27;96851;-69
2022/05/22 15:16:13;;;;;;;6.70;3.75;;;;;;;32.27;38.79;95509.63;10415465;27;97444;-69
2022/05/22 15:21:16;;;;;;;5.93;3.60;;;;;;;32.73;39.01;95484.25;10417030;27;96852;-69
2022/05/22 15:26:23;;;;;;;6.32;4.00;;;;;;;32.59;38.55;95489.72;10409681;27;97008;-69
2022/05/22 15:31:29;;;;;;;4.45;3.45;;;;;;;31.92;39.81;95480.34;10402889;27;97590;-74
2022/05/22 15:36:34;;;;;;;7.05;3.90;;;;;;;31.39;40.71;95486.28;10416079;27;96859;-72
2022/05/22 15:42:06;;;;;;;4.97;3.50;;;;;;;32.14;40.06;95478.84;10422683;27;96864;-72
2022/05/22 15:47:19;;;;;;;8.20;4.15;;;;;;;32.23;39.43;95498.63;10415752;27;96784;-72
2022/05/22 15:52:25;;;;;;;6.63;3.90;;;;;;;31.85;39.42;95501.56;10414846;27;99184;-72
2022/05/22 15:57:29;;;;;;;5.20;3.72;;;;;;;30.99;40.68;95483.19;10424130;27;97211;-72
2022/05/22 16:02:36;;;;;;;8.45;4.65;;;;;;;30.41;41.35;95474.41;10415313;27;97162;-72
2022/05/22 16:07:40;;;;;;;7.68;3.90;;;;;;;30.01;42.33;95470.34;10416795;27;97451;-72
2022/05/22 16:12:44;;;;;;;5.88;4.10;;;;;;;29.59;43.33;95470.06;10418162;27;97209;-72
2022/05/22 16:17:54;;;;;;;4.30;3.90;;;;;;;29.45;43.79;95453.00;10417271;27;97181;-72
2022/05/22 16:22:58;;;;;;;5.95;3.75;;;;;;;29.36;44.26;95455.53;10415874;27;101288;-72
2022/05/22 16:28:03;;;;;;;4.95;3.88;;;;;;;30.01;43.29;95465.78;10413336;27;98462;-72
2022/05/22 16:33:06;;;;;;;6.13;3.53;;;;;;;30.56;42.04;95464.47;10418203;27;97206;-72
2022/05/22 16:38:09;;;;;;;5.53;3.50;;;;;;;31.04;40.97;95461.53;10410105;27;98168;-72
2022/05/22 16:43:13;;;;;;;;;;;;;;;31.35;40.63;95453.69;10415433;27;97438;-72
2022/05/22 16:53:48;;;;;;;6.78;4.03;;;;;;;31.14;39.75;95450.56;10287999;28;96958;-72
2022/05/22 16:58:53;;;;;;;4.25;3.70;;;;;;;30.85;40.20;95461.59;10284455;28;99225;-72
2022/05/22 17:03:57;;;;;;;6.22;4.28;;;;;;;30.69;39.69;95458.31;10290919;28;97216;-72
2022/05/22 17:09:05;;;;;;;37.70;16.70;;;;;;;30.23;39.87;95451.75;10281816;28;97371;-72
2022/05/22 17:14:16;;;;;;;5.97;4.20;;;;;;;29.57;39.97;95439.16;10284267;28;101918;-72
2022/05/22 17:19:20;;;;;;;6.00;3.88;;;;;;;28.76;40.73;95427.06;10282404;28;97346;-72
2022/05/22 17:24:28;;;;;;;19.40;13.35;;;;;;;28.32;41.88;95427.97;10290155;28;98251;-72
2022/05/22 17:29:36;;;;;;;7.03;4.57;;;;;;;27.98;42.65;95434.09;10412528;27;101638;-72
2022/05/22 17:34:40;;;;;;;6.45;3.40;;;;;;;27.65;43.45;95430.25;10415223;27;97313;-72
2022/05/22 17:39:43;;;;;;;7.22;4.03;;;;;;;27.46;44.23;95433.50;10412717;27;98364;-72
2022/05/22 17:44:48;;;;;;;;;;;;;;;27.23;44.04;95439.47;10411389;27;97507;-72
2022/05/22 17:49:51;;;;;;;;;;;;;;;27.00;44.16;95424.81;10410949;27;98844;-72
2022/05/22 17:54:54;;;;;;;4.70;3.90;;;;;;;26.78;45.86;95425.91;10410939;27;98278;-70
2022/05/22 17:59:59;;;;;;;6.20;4.10;;;;;;;26.54;46.84;95422.97;10399924;27;97326;-69
2022/05/22 18:05:04;;;;;;;7.10;4.32;;;;;;;26.15;48.09;95423.47;10411116;27;97593;-69
2022/05/22 18:10:10;;;;;;;12.27;5.00;;;;;;;25.97;49.06;95427.47;10416674;27;97371;-70
2022/05/22 18:20:39;;;;;;;10.02;4.07;;;;;;;25.83;48.90;95419.16;10409956;27;97247;-69
2022/05/22 18:25:46;;;;;;;6.35;4.20;;;;;;;25.80;49.28;95417.00;10404817;27;97326;-69
2022/05/22 18:30:54;;;;;;;6.22;4.38;;;;;;;25.60;49.76;95425.78;10408304;27;98568;-69
2022/05/22 18:35:58;;;;;;;9.10;4.15;;;;;;;25.54;49.80;95438.31;10406594;27;97320;-69
2022/05/22 18:41:03;;;;;;;7.25;4.15;;;;;;;25.45;50.20;95429.16;10401474;27;103767;-69
2022/05/22 18:46:09;;;;;;;7.68;4.20;;;;;;;25.31;50.76;95436.84;10411250;27;97264;-70
2022/05/22 18:51:14;;;;;;;12.48;4.63;;;;;;;25.09;50.81;95463.72;10403965;27;97646;-69
2022/05/22 18:56:22;;;;;;;8.38;4.50;;;;;;;24.69;52.84;95507.78;10401591;27;99370;-70
2022/05/22 19:01:26;;;;;;;6.57;4.35;;;;;;;24.40;54.12;95525.94;10401294;27;98641;-66
2022/05/22 19:06:30;;;;;;;7.93;4.72;;;;;;;24.15;55.52;95524.63;10402155;27;97041;-68
2022/05/22 19:11:34;;;;;;;6.68;4.93;;;;;;;24.03;56.46;95538.06;10408265;27;99412;-68
2022/05/22 19:16:39;;;;;;;;;;;;;;;23.71;56.50;95538.78;10414432;27;97232;-68
2022/05/22 19:21:43;;;;;;;8.25;5.00;;;;;;;23.31;58.82;95523.06;10420370;27;97340;-67
2022/05/22 19:26:49;;;;;;;9.27;4.95;;;;;;;23.15;59.43;95516.66;10413705;27;97606;-67
2022/05/22 19:31:56;;;;;;;12.55;5.65;;;;;;;23.14;60.19;95509.75;10404278;27;97674;-67
2022/05/22 19:36:59;;;;;;;10.23;4.80;;;;;;;23.04;59.67;95520.25;10412856;27;96991;-68
2022/05/22 19:47:31;;;;;;;10.77;5.10;;;;;;;22.97;58.64;95494.56;10410940;27;97845;-71
2022/05/22 19:52:34;;;;;;;7.80;4.32;;;;;;;22.94;58.46;95505.75;10407096;27;97452;-71
2022/05/22 20:03:03;;;;;;;8.27;4.43;;;;;;;22.71;57.32;95484.59;10407938;27;99804;-70
2022/05/22 20:08:14;;;;;;;10.07;4.88;;;;;;;22.66;57.48;95471.22;10406711;27;97666;-70
2022/05/22 20:13:17;;;;;;;11.45;4.60;;;;;;;22.62;57.21;95449.59;10409219;27;98678;-71
2022/05/22 20:18:22;;;;;;;11.47;4.33;;;;;;;22.69;56.44;95425.47;10402121;27;98189;-70
2022/05/22 20:23:26;;;;;;;9.73;3.83;;;;;;;22.72;55.85;95403.69;10408981;27;101328;-70
2022/05/22 20:28:32;;;;;;;7.20;4.10;;;;;;;22.59;56.55;95384.31;10408290;27;97687;-70
2022/05/22 20:33:38;;;;;;;7.57;4.00;;;;;;;22.11;58.65;95359.13;10408640;27;98692;-70
2022/05/22 20:38:43;;;;;;;7.80;4.00;;;;;;;21.83;59.69;95342.19;10408661;27;97466;-70
2022/05/22 20:43:50;;;;;;;10.25;4.20;;;;;;;21.74;60.31;95340.94;10412480;27;97293;-70
2022/05/22 20:48:56;;;;;;;9.90;4.45;;;;;;;21.73;60.31;95327.88;10406847;27;97835;-70
2022/05/22 20:53:59;;;;;;;7.88;4.07;;;;;;;21.72;60.21;95355.53;10409169;27;97215;-70
2022/05/22 20:59:04;;;;;;;8.82;4.25;;;;;;;21.74;60.16;95343.59;10412639;27;97655;-70
2022/05/22 21:04:08;;;;;;;8.77;4.22;;;;;;;21.67;60.85;95359.69;10409577;27;98038;-70
2022/05/22 21:09:13;;;;;;;11.88;4.78;;;;;;;21.45;61.89;95350.75;10405343;27;98083;-69
2022/05/22 21:14:16;;;;;;;7.95;4.32;;;;;;;21.25;62.90;95367.94;10408921;27;97328;-70
2022/05/22 21:19:21;;;;;;;8.70;4.35;;;;;;;21.05;63.58;95336.50;10404898;27;98215;-69
2022/05/22 21:29:47;;;;;;;17.50;11.57;;;;;;;20.82;62.39;95352.47;10397171;27;98129;-69
2022/05/22 21:34:52;;;;;;;9.30;3.93;;;;;;;20.69;61.90;95354.31;10405200;27;96755;-70
2022/05/22 21:39:55;;;;;;;8.35;3.63;;;;;;;20.54;61.21;95346.00;10404828;27;98011;-69
2022/05/22 21:44:57;;;;;;;6.88;4.35;;;;;;;20.41;60.95;95335.63;10404720;27;98615;-68
2022/05/22 21:50:02;;;;;;;9.77;4.88;;;;;;;20.36;60.20;95313.25;10408642;27;98949;-69
2022/05/22 21:55:05;;;;;;;;;;;;;;;20.46;59.82;95312.69;10403444;27;97832;-71
2022/05/22 22:00:17;;;;;;;6.60;3.15;;;;;;;20.51;59.19;95311.97;10405367;27;98791;-70
2022/05/22 22:05:22;;;;;;;8.80;3.28;;;;;;;20.48;58.98;95293.88;10405063;27;97300;-70
2022/05/22 22:10:25;;;;;;;6.88;3.08;;;;;;;20.47;58.52;95282.44;10400180;27;101092;-67
2022/05/22 22:15:28;;;;;;;8.60;3.30;;;;;;;20.43;58.40;95273.34;10402287;27;98658;-69
2022/05/22 22:20:34;;;;;;;6.47;3.08;;;;;;;20.42;59.19;95284.19;10405887;27;96859;-68
2022/05/22 22:25:37;;;;;;;10.18;3.40;;;;;;;20.35;59.17;95274.50;10401113;27;98121;-70
2022/05/22 22:30:41;;;;;;;7.05;3.08;;;;;;;20.20;58.47;95263.59;10409725;27;96860;-69
2022/05/22 22:35:46;;;;;;;8.98;3.22;;;;;;;19.86;60.07;95266.00;10409431;27;97014;-68
2022/05/22 22:40:49;;;;;;;6.50;2.83;;;;;;;19.79;61.07;95265.28;10407922;27;99622;-68
2022/05/22 22:45:52;;;;;;;9.00;2.90;;;;;;;19.68;60.43;95271.34;10418385;27;98572;-68
2022/05/22 22:50:56;;;;;;;7.30;2.75;;;;;;;19.52;60.31;95273.66;10415271;27;98575;-68
2022/05/22 23:01:19;;;;;;;7.22;2.80;;;;;;;19.43;60.86;95256.47;10414165;27;100294;-68
2022/05/22 23:06:23;;;;;;;6.80;3.17;;;;;;;19.32;61.25;95278.44;10416746;27;98459;-68
2022/05/22 23:11:27;;;;;;;7.13;3.00;;;;;;;19.32;60.82;95259.91;10419806;27;96983;-68
2022/05/22 23:16:30;;;;;;;7.53;3.60;;;;;;;19.28;61.36;95251.63;10414707;27;97696;-68
2022/05/22 23:21:35;;;;;;;8.02;2.95;;;;;;;19.18;61.65;95254.78;10416007;27;96778;-68
2022/05/22 23:26:39;;;;;;;6.00;2.90;;;;;;;19.21;61.58;95243.75;10415635;27;99294;-68
2022/05/22 23:31:42;;;;;;;7.90;3.33;;;;;;;19.22;62.33;95244.56;10411181;27;97888;-69
2022/05/22 23:36:49;;;;;;;8.57;3.67;;;;;;;19.20;63.61;95246.63;10412812;27;100109;-68
2022/05/22 23:41:55;;;;;;;10.40;3.50;;;;;;;19.19;63.22;95239.72;10414734;27;97330;-68
2022/05/22 23:46:59;;;;;;;8.98;3.30;;;;;;;19.12;63.74;95239.81;10414748;27;98038;-68
2022/05/22 23:52:06;;;;;;;9.00;3.80;;;;;;;19.06;64.41;95246.00;10415190;27;99178;-68
2022/05/22 23:57:10;;;;;;;9.40;3.15;;;;;;;19.06;64.34;95246.00;10412428;27;98667;-68
